createdAt,value
2018-06-27T00:09:19.522Z,79.30
2018-06-27T00:11:48.660Z,79.20
2018-06-27T00:24:34.199Z,79.40
2018-06-27T00:41:05.115Z,80.30
2018-06-27T00:43:34.339Z,80.50
2018-06-27T00:48:32.278Z,80.40
2018-06-27T00:51:01.444Z,80.30
2018-06-27T00:53:35.806Z,80.10
2018-06-27T00:56:05.050Z,80.00
2018-06-27T01:01:02.952Z,80.20
2018-06-27T01:03:32.097Z,80.20
2018-06-27T01:06:01.396Z,80.40
2018-06-27T01:08:30.538Z,80.10
2018-06-27T01:10:59.735Z,80.00
2018-06-27T01:13:29.320Z,80.80
2018-06-27T01:18:32.648Z,79.80
2018-06-27T01:23:36.855Z,79.90
2018-06-27T01:26:06.005Z,80.00
2018-06-27T01:28:35.151Z,80.70
2018-06-27T01:31:04.374Z,80.00
2018-06-27T01:33:33.680Z,79.60
2018-06-27T01:36:02.892Z,80.00
2018-06-27T01:38:32.035Z,80.00
2018-06-27T01:41:01.235Z,80.30
2018-06-27T01:43:30.371Z,80.10
2018-06-27T01:45:59.526Z,80.60
2018-06-27T01:48:28.707Z,80.40
2018-06-27T01:50:57.855Z,80.50
2018-06-27T01:53:27.009Z,80.50
2018-06-27T01:55:56.240Z,80.30
2018-06-27T01:58:25.388Z,80.20
2018-06-27T02:00:54.570Z,80.10
2018-06-27T02:03:23.720Z,80.00
2018-06-27T02:05:52.957Z,80.20
2018-06-27T02:08:22.115Z,79.90
2018-06-27T02:10:51.306Z,80.20
2018-06-27T02:13:20.456Z,80.50
2018-06-27T02:15:50.048Z,80.70
2018-06-27T02:18:19.275Z,80.50
2018-06-27T02:20:48.422Z,80.80
2018-06-27T02:23:17.607Z,80.70
2018-06-27T02:25:46.768Z,81.60
2018-06-27T02:28:18.878Z,81.40
2018-06-27T02:30:48.025Z,81.00
2018-06-27T02:33:22.426Z,80.60
2018-06-27T02:35:51.581Z,80.70
2018-06-27T02:38:21.052Z,80.80
2018-06-27T02:40:50.217Z,80.60
2018-06-27T02:43:19.633Z,80.20
2018-06-27T02:45:49.096Z,80.30
2018-06-27T02:48:18.245Z,80.80
2018-06-27T02:50:47.515Z,80.70
2018-06-27T02:53:16.714Z,80.60
2018-06-27T02:55:46.089Z,80.70
2018-06-27T02:58:15.418Z,80.90
2018-06-27T03:00:44.668Z,80.70
2018-06-27T03:03:13.891Z,80.50
2018-06-27T03:05:43.193Z,81.20
2018-06-27T03:08:12.370Z,81.10
2018-06-27T03:10:43.862Z,80.70
2018-06-27T03:13:13.049Z,81.20
2018-06-27T03:15:50.584Z,81.40
2018-06-27T03:18:19.805Z,81.40
2018-06-27T03:20:49.060Z,81.40
2018-06-27T03:23:18.252Z,81.50
2018-06-27T03:25:52.567Z,81.20
2018-06-27T03:28:24.399Z,81.40
2018-06-27T03:30:53.824Z,81.80
2018-06-27T03:33:22.983Z,80.60
2018-06-27T03:35:52.120Z,80.90
2018-06-27T03:38:21.687Z,81.20
2018-06-27T03:40:51.503Z,81.20
2018-06-27T03:43:20.673Z,81.90
2018-06-27T03:45:49.846Z,81.80
2018-06-27T03:48:19.004Z,81.60
2018-06-27T03:50:48.298Z,81.50
2018-06-27T03:53:17.511Z,81.30
2018-06-27T03:55:46.654Z,81.30
2018-06-27T03:58:15.884Z,80.70
2018-06-27T04:00:45.047Z,80.50
2018-06-27T04:03:14.356Z,79.70
2018-06-27T04:05:43.731Z,78.00
2018-06-27T04:08:12.867Z,76.90
2018-06-27T04:10:42.026Z,75.60
2018-06-27T04:13:11.392Z,74.10
2018-06-27T04:15:40.564Z,73.20
2018-06-27T04:18:09.700Z,71.20
2018-06-27T04:20:39.118Z,70.50
2018-06-27T04:23:08.251Z,69.30
2018-06-27T04:25:37.404Z,67.50
2018-06-27T04:28:07.061Z,67.70
2018-06-27T04:30:36.878Z,67.50
2018-06-27T04:33:06.056Z,66.40
2018-06-27T04:35:35.232Z,65.30
2018-06-27T04:38:04.392Z,64.20
2018-06-27T04:40:33.658Z,63.10
2018-06-27T04:43:02.820Z,62.90
2018-06-27T04:45:33.049Z,62.40
2018-06-27T04:48:21.095Z,62.10
2018-06-27T04:50:50.728Z,61.90
2018-06-27T04:53:20.014Z,61.20
2018-06-27T04:55:49.186Z,61.10
2018-06-27T04:58:18.362Z,60.60
2018-06-27T05:00:47.513Z,60.10
2018-06-27T05:03:16.724Z,58.90
2018-06-27T05:05:45.889Z,59.00
2018-06-27T05:08:15.415Z,58.50
2018-06-27T05:10:44.585Z,58.00
2018-06-27T05:13:13.736Z,58.10
2018-06-27T05:15:42.926Z,57.00
2018-06-27T05:18:12.088Z,55.90
2018-06-27T05:20:41.277Z,54.70
2018-06-27T05:23:10.416Z,53.20
2018-06-27T05:25:39.628Z,54.10
2018-06-27T05:28:09.216Z,51.30
2018-06-27T05:30:38.386Z,50.80
2018-06-27T05:33:07.595Z,52.30
2018-06-27T05:35:36.782Z,53.20
2018-06-27T05:38:06.047Z,54.70
2018-06-27T05:40:35.239Z,57.30
2018-06-27T05:43:04.371Z,56.60
2018-06-27T05:45:33.530Z,56.70
2018-06-27T05:48:02.710Z,57.00
2018-06-27T05:50:31.828Z,57.70
2018-06-27T05:53:00.944Z,58.30
2018-06-27T05:55:30.603Z,58.50
2018-06-27T05:57:59.839Z,58.60
2018-06-27T06:00:29.064Z,57.50
2018-06-27T06:02:58.259Z,58.50
2018-06-27T06:05:27.769Z,59.80
2018-06-27T06:07:56.913Z,60.80
2018-06-27T06:10:26.107Z,61.40
2018-06-27T06:12:55.227Z,62.10
2018-06-27T06:15:24.421Z,62.90
2018-06-27T06:17:53.799Z,64.30
2018-06-27T06:20:22.971Z,65.40
2018-06-27T06:22:52.116Z,66.90
2018-06-27T06:25:21.295Z,66.50
2018-06-27T06:30:19.748Z,67.00
2018-06-27T06:33:01.252Z,67.30
2018-06-27T06:38:20.864Z,68.70
2018-06-27T06:40:50.120Z,68.00
2018-06-27T06:43:19.203Z,68.10
2018-06-27T06:45:48.399Z,68.10
2018-06-27T06:48:17.872Z,67.70
2018-06-27T06:53:15.767Z,66.10
2018-06-27T06:55:44.926Z,65.60
2018-06-27T06:58:14.363Z,65.70
2018-06-27T07:03:12.315Z,68.10
2018-06-27T07:05:41.482Z,67.60
2018-06-27T07:08:10.628Z,67.10
2018-06-27T07:10:39.795Z,67.30
2018-06-27T07:13:08.947Z,67.70
2018-06-27T07:15:42.279Z,66.10
2018-06-27T07:18:11.419Z,65.10
2018-06-27T07:20:40.603Z,64.90
2018-06-27T07:23:09.952Z,65.20
2018-06-27T07:25:39.140Z,62.90
2018-06-27T07:28:08.517Z,61.80
2018-06-27T07:30:38.104Z,60.40
2018-06-27T07:33:07.270Z,62.20
2018-06-27T07:35:36.475Z,60.70
2018-06-27T07:38:06.040Z,62.40
2018-06-27T07:40:35.176Z,62.70
2018-06-27T07:43:04.335Z,62.10
2018-06-27T07:45:33.945Z,59.50
2018-06-27T07:48:03.079Z,60.90
2018-06-27T07:50:32.219Z,59.40
2018-06-27T07:53:01.383Z,60.20
2018-06-27T07:55:31.885Z,59.00
2018-06-27T07:58:01.184Z,59.20
2018-06-27T08:00:30.411Z,56.70
2018-06-27T08:02:59.595Z,57.90
2018-06-27T08:05:28.923Z,54.60
2018-06-27T08:07:58.052Z,55.30
2018-06-27T08:10:27.216Z,55.70
2018-06-27T08:12:56.528Z,55.30
2018-06-27T08:15:25.675Z,57.20
2018-06-27T08:17:54.974Z,55.80
2018-06-27T08:20:24.048Z,55.00
2018-06-27T08:22:53.558Z,52.40
2018-06-27T08:25:22.741Z,52.70
2018-06-27T08:27:51.867Z,53.20
2018-06-27T08:30:21.083Z,55.90
2018-06-27T08:32:50.250Z,54.90
2018-06-27T08:35:19.415Z,54.40
2018-06-27T08:37:48.648Z,54.00
2018-06-27T08:40:17.916Z,54.20
2018-06-27T08:42:47.143Z,53.00
2018-06-27T08:45:16.294Z,52.70
2018-06-27T08:47:45.496Z,51.60
2018-06-27T08:50:14.742Z,52.50
2018-06-27T08:52:43.880Z,52.20
2018-06-27T08:55:13.068Z,52.70
2018-06-27T08:57:42.305Z,52.20
2018-06-27T09:00:11.682Z,51.80
2018-06-27T09:02:41.000Z,52.70
2018-06-27T09:05:10.185Z,54.80
2018-06-27T09:07:39.824Z,55.70
2018-06-27T09:10:08.996Z,53.70
2018-06-27T09:12:38.133Z,53.40
2018-06-27T09:15:07.327Z,55.40
2018-06-27T09:20:05.648Z,55.30
2018-06-27T09:22:35.087Z,53.70
2018-06-27T09:25:04.345Z,53.00
2018-06-27T09:27:33.497Z,54.40
2018-06-27T09:30:03.095Z,56.10
2018-06-27T09:32:32.246Z,56.50
2018-06-27T09:35:03.740Z,54.90
2018-06-27T09:44:32.923Z,54.30
2018-06-27T09:50:07.090Z,55.20
2018-06-27T09:53:19.778Z,56.60
2018-06-27T09:59:10.967Z,55.50
2018-06-27T10:19:10.861Z,56.60
2018-06-27T10:21:39.941Z,55.90
2018-06-27T10:24:09.082Z,55.30
2018-06-27T10:26:38.648Z,57.00
2018-06-27T10:29:08.449Z,55.90
2018-06-27T10:31:37.934Z,53.90
2018-06-27T10:34:12.608Z,54.80
2018-06-27T10:36:45.181Z,55.70
2018-06-27T10:42:52.252Z,56.60
2018-06-27T10:45:29.679Z,57.10
2018-06-27T10:48:02.149Z,58.10
2018-06-27T10:50:39.633Z,56.30
2018-06-27T10:53:08.887Z,57.20
2018-06-27T10:55:38.057Z,55.50
2018-06-27T10:58:07.171Z,58.00
2018-06-27T11:00:36.271Z,55.90
2018-06-27T11:03:05.667Z,55.60
2018-06-27T11:05:34.856Z,56.30
2018-06-27T11:08:04.485Z,55.40
2018-06-27T11:10:33.645Z,57.10
2018-06-27T11:13:02.766Z,54.50
2018-06-27T11:15:32.125Z,54.70
2018-06-27T11:18:01.376Z,53.70
2018-06-27T11:20:30.575Z,55.60
2018-06-27T11:22:59.698Z,53.30
2018-06-27T11:25:28.849Z,54.40
2018-06-27T11:27:58.029Z,54.10
2018-06-27T11:30:27.164Z,53.60
2018-06-27T11:32:56.276Z,56.50
2018-06-27T11:35:25.428Z,53.70
2018-06-27T11:37:54.533Z,54.50
2018-06-27T11:40:23.654Z,54.90
2018-06-27T11:42:52.752Z,53.70
2018-06-27T11:45:21.891Z,52.40
2018-06-27T11:47:51.021Z,52.00
2018-06-27T11:50:20.186Z,53.90
2018-06-27T11:52:49.315Z,53.30
2018-06-27T11:55:18.510Z,53.40
2018-06-27T11:57:47.622Z,53.70
2018-06-27T12:00:16.743Z,52.90
2018-06-27T12:02:45.899Z,52.70
2018-06-27T12:05:15.020Z,51.20
2018-06-27T12:07:44.157Z,51.80
2018-06-27T12:10:13.260Z,51.20
2018-06-27T12:12:42.546Z,50.60
2018-06-27T12:15:11.751Z,52.20
2018-06-27T12:17:40.883Z,51.30
2018-06-27T12:20:10.044Z,49.10
2018-06-27T12:22:39.142Z,50.20
2018-06-27T12:25:08.282Z,50.00
2018-06-27T12:27:43.801Z,48.90
2018-06-27T12:30:20.128Z,50.30
2018-06-27T12:32:49.655Z,49.90
2018-06-27T12:35:19.557Z,50.10
2018-06-27T12:37:48.671Z,49.80
2018-06-27T12:40:18.129Z,48.40
2018-06-27T12:42:47.240Z,47.00
2018-06-27T12:45:16.707Z,48.00
2018-06-27T12:47:45.797Z,46.10
2018-06-27T12:50:15.022Z,46.20
2018-06-27T12:52:44.194Z,45.10
2018-06-27T12:55:14.066Z,47.20
2018-06-27T12:57:43.327Z,48.20
2018-06-27T13:00:12.519Z,49.00
2018-06-27T13:02:41.629Z,46.70
2018-06-27T13:05:11.153Z,45.80
2018-06-27T13:07:40.260Z,46.10
2018-06-27T13:10:09.881Z,48.20
2018-06-27T13:12:39.121Z,49.00
2018-06-27T13:15:08.370Z,47.30
2018-06-27T13:17:37.475Z,47.10
2018-06-27T13:20:06.910Z,47.90
2018-06-27T13:22:36.095Z,46.70
2018-06-27T13:25:05.481Z,47.90
2018-06-27T13:27:34.652Z,49.80
2018-06-27T13:30:04.448Z,50.30
2018-06-27T13:32:39.108Z,49.10
2018-06-27T13:35:08.441Z,47.80
2018-06-27T13:50:57.022Z,46.80
2018-06-27T13:53:26.134Z,46.50
2018-06-27T13:55:55.292Z,47.40
2018-06-27T13:58:25.105Z,46.50
2018-06-27T14:00:54.279Z,48.10
2018-06-27T14:03:23.442Z,49.50
2018-06-27T14:05:52.723Z,49.50
2018-06-27T14:08:22.411Z,47.90
2018-06-27T14:13:20.922Z,49.00
2018-06-27T14:15:50.120Z,48.70
2018-06-27T14:18:19.409Z,46.80
2018-06-27T14:20:48.547Z,47.90
2018-06-27T14:23:17.676Z,47.80
2018-06-27T14:25:46.958Z,47.90
2018-06-27T14:28:16.045Z,46.90
2018-06-27T14:30:45.168Z,47.70
2018-06-27T14:33:14.285Z,48.70
2018-06-27T14:35:43.514Z,47.40
2018-06-27T14:38:12.674Z,49.30
2018-06-27T14:40:41.813Z,49.30
2018-06-27T14:43:10.908Z,49.10
2018-06-27T14:45:40.117Z,49.00
2018-06-27T14:48:09.309Z,47.30
2018-06-27T14:50:38.774Z,47.40
2018-06-27T14:53:08.283Z,47.20
2018-06-27T14:55:37.786Z,47.00
2018-06-27T14:58:07.564Z,47.20
2018-06-27T15:00:36.716Z,47.30
2018-06-27T15:03:05.918Z,46.90
2018-06-27T15:05:35.118Z,46.20
2018-06-27T15:08:04.263Z,44.80
2018-06-27T15:10:33.424Z,44.20
2018-06-27T15:13:02.587Z,44.60
2018-06-27T15:15:31.783Z,45.80
2018-06-27T15:18:01.108Z,45.90
2018-06-27T15:20:30.368Z,46.20
2018-06-27T15:22:59.533Z,46.40
2018-06-27T15:25:28.698Z,45.60
2018-06-27T15:28:09.159Z,44.70
2018-06-27T15:30:38.744Z,45.20
2018-06-27T15:33:08.055Z,46.00
2018-06-27T15:35:37.220Z,46.80
2018-06-27T15:38:06.566Z,46.70
2018-06-27T15:40:38.633Z,47.50
2018-06-27T15:43:08.932Z,48.00
2018-06-27T15:45:38.653Z,47.90
2018-06-27T15:48:08.659Z,47.50
2018-06-27T15:50:37.935Z,46.30
2018-06-27T15:53:07.795Z,47.30
2018-06-27T15:55:37.778Z,46.30
2018-06-27T15:58:08.072Z,47.10
2018-06-27T16:00:37.429Z,47.50
2018-06-27T16:03:06.685Z,47.80
2018-06-27T16:05:36.791Z,46.20
2018-06-27T16:08:07.384Z,46.70
2018-06-27T16:10:36.620Z,46.20
2018-06-27T16:13:06.016Z,46.70
2018-06-27T16:15:35.177Z,47.20
2018-06-27T16:18:04.619Z,47.60
2018-06-27T16:20:33.747Z,46.10
2018-06-27T16:23:02.831Z,46.90
2018-06-27T16:25:32.108Z,47.00
2018-06-27T16:31:17.305Z,48.30
2018-06-27T16:33:46.489Z,47.50
2018-06-27T16:36:23.049Z,47.40
2018-06-27T16:38:52.420Z,48.40
2018-06-27T16:41:21.587Z,48.40
2018-06-27T16:43:50.873Z,46.80
2018-06-27T16:46:20.073Z,47.50
2018-06-27T16:48:49.205Z,47.40
2018-06-27T16:51:18.450Z,46.40
2018-06-27T16:53:48.033Z,46.90
2018-06-27T16:56:17.188Z,46.60
2018-06-27T16:58:46.580Z,47.40
2018-06-27T17:01:15.838Z,47.50
2018-06-27T17:06:15.633Z,48.80
2018-06-27T17:08:44.819Z,48.90
2018-06-27T17:11:13.970Z,49.60
2018-06-27T17:13:43.394Z,49.40
2018-06-27T17:16:12.716Z,48.60
2018-06-27T17:19:21.079Z,49.00
2018-06-27T17:29:11.386Z,48.90
2018-06-27T17:31:41.569Z,47.90
2018-06-27T17:34:10.743Z,47.70
2018-06-27T17:36:39.920Z,47.80
2018-06-27T17:39:10.698Z,47.80
2018-06-27T17:41:40.483Z,48.10
2018-06-27T17:44:09.691Z,48.00
2018-06-27T17:46:38.859Z,48.70
2018-06-27T17:51:40.832Z,48.20
2018-06-27T17:54:10.102Z,48.70
2018-06-27T17:56:40.357Z,48.80
2018-06-27T17:59:09.559Z,48.80
2018-06-27T18:01:38.784Z,49.80
2018-06-27T18:04:08.486Z,50.30
2018-06-27T18:06:37.665Z,50.90
2018-06-27T18:09:09.024Z,52.20
2018-06-27T18:11:43.814Z,52.30
2018-06-27T18:14:13.191Z,52.00
2018-06-27T18:16:42.351Z,52.40
2018-06-27T18:19:11.521Z,52.90
2018-06-27T18:21:41.234Z,53.20
2018-06-27T18:24:10.400Z,54.10
2018-06-27T18:26:39.535Z,54.30
2018-06-27T18:31:45.359Z,55.00
2018-06-27T18:34:20.316Z,55.10
2018-06-27T18:37:04.459Z,54.90
2018-06-27T18:39:38.175Z,55.40
2018-06-27T18:42:11.933Z,56.00
2018-06-27T18:44:43.268Z,56.60
2018-06-27T18:47:13.764Z,56.70
2018-06-27T18:49:45.551Z,56.60
2018-06-27T18:52:21.837Z,56.90
2018-06-27T18:54:57.338Z,57.50
2018-06-27T19:00:10.596Z,57.70
2018-06-27T19:02:51.225Z,57.70
2018-06-27T19:05:42.892Z,57.70
2018-06-27T19:08:14.280Z,58.20
2018-06-27T19:10:44.845Z,58.70
2018-06-27T19:13:16.606Z,59.10
2018-06-27T19:15:48.004Z,59.10
2018-06-27T19:18:22.424Z,59.50
2018-06-27T19:21:18.027Z,60.60
2018-06-27T19:23:58.043Z,59.90
2018-06-27T19:26:31.295Z,60.20
2018-06-27T19:29:04.391Z,60.60
2018-06-27T19:31:36.495Z,60.70
2018-06-27T19:34:05.979Z,61.00
2018-06-27T19:36:38.436Z,61.20
2018-06-27T19:39:10.254Z,61.70
2018-06-27T19:41:42.148Z,62.50
2018-06-27T19:44:11.452Z,62.40
2018-06-27T19:50:20.445Z,62.50
2018-06-27T19:52:53.062Z,62.60
2018-06-27T19:55:37.972Z,62.90
2018-06-27T19:58:09.729Z,63.20
2018-06-27T20:00:38.920Z,63.70
2018-06-27T20:03:12.638Z,63.80
2018-06-27T20:05:48.728Z,64.20
2018-06-27T20:08:21.877Z,64.60
2018-06-27T20:10:52.835Z,65.00
2018-06-27T20:13:22.009Z,65.80
2018-06-27T20:15:53.521Z,65.90
2018-06-27T20:18:43.995Z,66.30
2018-06-27T20:21:15.631Z,66.40
2018-06-27T20:23:44.951Z,66.90
2018-06-27T20:26:15.437Z,67.00
2018-06-27T20:28:47.140Z,66.80
2018-06-27T20:31:18.081Z,67.00
2018-06-27T20:33:49.942Z,67.40
2018-06-27T20:36:20.800Z,67.50
2018-06-27T20:38:50.747Z,67.90
2018-06-27T20:41:21.494Z,68.20
2018-06-27T20:43:50.759Z,68.70
2018-06-27T20:46:25.601Z,68.90
2018-06-27T20:48:58.055Z,69.10
2018-06-27T20:51:30.282Z,69.40
2018-06-27T20:54:02.598Z,69.60
2018-06-27T20:56:32.312Z,69.70
2018-06-27T20:59:01.443Z,70.20
2018-06-27T21:01:31.694Z,70.80
2018-06-27T21:04:02.426Z,70.80
2018-06-27T21:06:33.223Z,71.20
2018-06-27T21:09:02.460Z,71.20
2018-06-27T21:11:34.582Z,71.20
2018-06-27T21:14:04.815Z,71.20
2018-06-27T21:16:34.210Z,72.00
2018-06-27T21:19:03.504Z,72.20
2018-06-27T21:22:01.469Z,72.40
